Terminal Aerodrome Forecast
Issued by NWS Twin Cities, MN

Home | Current Version | Previous Version | Text Only | Print | Product List | Glossary Off
Versions: 1 2 3 4 5 6 7 8 9 10 11 12 13 14 15 16 17 18 19 20

000
FTUS43 KMPX 270323 AAA
TAFEAU
TAF AMD
KEAU 270323Z 2703/2724 33008KT P6SM -RA SCT012 BKN025 BKN110
      TEMPO 2703/2706 BKN012
     FM270600 30006KT 6SM BR VCSH SCT008 OVC012
      TEMPO 2706/2710 2SM BR OVC006
     FM271500 27006KT P6SM SCT020 BKN050
     FM271800 27010KT P6SM VCSH BKN060=

USA.gov is the U.S. government's official web portal to all federal, state and local government web resources and services.